createdAt,value
2018-02-20T00:01:42.004Z,47.49
2018-02-20T00:04:07.947Z,47.72
2018-02-20T00:06:33.903Z,47.57
2018-02-20T00:08:59.862Z,47.79
2018-02-20T00:11:25.824Z,47.45
2018-02-20T00:13:51.766Z,47.57
2018-02-20T00:16:17.738Z,47.49
2018-02-20T00:18:43.685Z,47.52
2018-02-20T00:21:09.667Z,47.54
2018-02-20T00:23:35.693Z,47.53
2018-02-20T00:26:01.639Z,47.27
2018-02-20T00:28:27.601Z,47.43
2018-02-20T00:30:53.557Z,47.49
2018-02-20T00:33:19.543Z,47.30
2018-02-20T00:35:45.514Z,47.50
2018-02-20T00:38:11.470Z,47.52
2018-02-20T00:40:37.421Z,47.71
2018-02-20T00:43:03.367Z,47.57
2018-02-20T00:45:29.319Z,47.69
2018-02-20T00:47:55.296Z,47.72
2018-02-20T00:50:21.246Z,47.58
2018-02-20T00:52:47.201Z,47.55
2018-02-20T00:55:13.173Z,47.32
2018-02-20T00:57:39.128Z,47.24
2018-02-20T01:00:05.106Z,47.36
2018-02-20T01:02:31.068Z,47.50
2018-02-20T01:04:57.079Z,47.28
2018-02-20T01:07:23.038Z,47.43
2018-02-20T01:09:49.017Z,47.40
2018-02-20T01:12:14.984Z,47.35
2018-02-20T01:14:40.935Z,47.07
2018-02-20T01:17:06.879Z,47.00
2018-02-20T01:19:32.871Z,47.10
2018-02-20T01:21:58.841Z,47.00
2018-02-20T01:24:24.801Z,47.13
2018-02-20T01:26:50.779Z,47.34
2018-02-20T01:29:16.742Z,47.13
2018-02-20T01:31:42.700Z,47.18
2018-02-20T01:34:08.695Z,46.98
2018-02-20T01:36:34.688Z,47.41
2018-02-20T01:39:00.902Z,47.07
2018-02-20T01:41:26.873Z,47.03
2018-02-20T01:43:52.924Z,47.07
2018-02-20T01:46:18.889Z,46.99
2018-02-20T01:48:44.845Z,47.00
2018-02-20T01:51:10.817Z,47.09
2018-02-20T01:53:36.770Z,47.10
2018-02-20T01:56:02.734Z,46.94
2018-02-20T01:58:28.728Z,47.22
2018-02-20T02:00:54.728Z,47.05
2018-02-20T02:03:20.706Z,47.00
2018-02-20T02:05:46.649Z,46.99
2018-02-20T02:08:12.640Z,46.91
2018-02-20T02:10:38.588Z,46.94
2018-02-20T02:13:04.555Z,46.95
2018-02-20T02:15:30.513Z,46.94
2018-02-20T02:17:56.459Z,46.93
2018-02-20T02:20:22.440Z,46.70
2018-02-20T02:22:48.432Z,46.72
2018-02-20T02:25:14.415Z,46.85
2018-02-20T02:27:40.390Z,46.62
2018-02-20T02:30:06.344Z,46.69
2018-02-20T02:32:32.327Z,46.66
2018-02-20T02:34:58.305Z,46.64
2018-02-20T02:37:24.526Z,46.90
2018-02-20T02:39:50.485Z,46.78
2018-02-20T02:42:16.436Z,46.87
2018-02-20T02:44:42.429Z,46.63
2018-02-20T02:47:08.377Z,46.68
2018-02-20T02:49:34.351Z,46.69
2018-02-20T02:52:00.318Z,46.55
2018-02-20T02:54:26.317Z,46.83
2018-02-20T02:56:52.264Z,46.64
2018-02-20T02:59:18.214Z,46.60
2018-02-20T03:01:44.263Z,46.62
2018-02-20T03:04:10.184Z,46.69
2018-02-20T03:06:36.138Z,46.71
2018-02-20T03:09:02.102Z,46.33
2018-02-20T03:11:28.061Z,46.55
2018-02-20T03:13:54.026Z,46.51
2018-02-20T03:16:19.986Z,46.32
2018-02-20T03:18:45.938Z,46.43
2018-02-20T03:21:11.886Z,46.40
2018-02-20T03:23:37.864Z,46.50
2018-02-20T03:26:03.824Z,46.48
2018-02-20T03:28:29.769Z,46.50
2018-02-20T03:30:55.730Z,46.41
2018-02-20T03:33:21.679Z,46.51
2018-02-20T03:35:47.651Z,46.42
2018-02-20T03:38:13.605Z,46.38
2018-02-20T03:40:39.578Z,46.47
2018-02-20T03:43:05.521Z,46.24
2018-02-20T03:45:31.490Z,45.83
2018-02-20T03:47:57.449Z,45.80
2018-02-20T03:50:23.430Z,45.44
2018-02-20T03:52:49.378Z,45.33
2018-02-20T03:55:15.359Z,45.20
2018-02-20T03:57:41.314Z,45.27
2018-02-20T04:00:07.292Z,45.14
2018-02-20T04:02:33.256Z,45.19
2018-02-20T04:04:59.218Z,45.27
2018-02-20T04:07:25.235Z,45.15
2018-02-20T04:09:51.184Z,45.04
2018-02-20T04:12:17.268Z,44.99
2018-02-20T04:14:43.214Z,44.96
2018-02-20T04:17:09.193Z,45.16
2018-02-20T04:19:35.170Z,44.89
2018-02-20T04:22:01.150Z,44.82
2018-02-20T04:24:27.120Z,44.93
2018-02-20T04:26:53.147Z,45.18
2018-02-20T04:29:19.146Z,44.80
2018-02-20T04:31:45.110Z,44.78
2018-02-20T04:34:11.113Z,45.15
2018-02-20T04:36:37.105Z,45.05
2018-02-20T04:39:03.084Z,45.02
2018-02-20T04:41:29.102Z,44.88
2018-02-20T04:43:55.063Z,45.08
2018-02-20T04:46:21.037Z,44.92
2018-02-20T04:48:46.988Z,44.85
2018-02-20T04:51:12.982Z,45.19
2018-02-20T04:53:38.978Z,45.18
2018-02-20T04:56:04.915Z,45.65
2018-02-20T04:58:30.870Z,45.11
2018-02-20T05:00:56.845Z,45.36
2018-02-20T05:03:22.797Z,45.34
2018-02-20T05:05:48.773Z,45.41
2018-02-20T05:08:14.742Z,45.43
2018-02-20T05:10:40.750Z,45.48
2018-02-20T05:13:06.735Z,45.57
2018-02-20T05:15:32.694Z,45.59
2018-02-20T05:17:58.645Z,45.46
2018-02-20T05:20:24.618Z,45.34
2018-02-20T05:22:50.598Z,45.57
2018-02-20T05:25:16.550Z,45.64
2018-02-20T05:27:42.502Z,45.62
2018-02-20T05:30:08.463Z,45.56
2018-02-20T05:32:34.413Z,45.65
2018-02-20T05:35:00.369Z,45.57
2018-02-20T05:37:26.345Z,45.46
2018-02-20T05:39:52.312Z,45.18
2018-02-20T05:42:18.336Z,45.23
2018-02-20T05:44:44.303Z,45.19
2018-02-20T05:47:10.264Z,45.32
2018-02-20T05:49:36.230Z,45.51
2018-02-20T05:52:02.174Z,45.50
2018-02-20T05:54:28.135Z,45.60
2018-02-20T05:56:54.132Z,45.53
2018-02-20T05:59:20.081Z,45.53
2018-02-20T06:01:46.050Z,45.48
2018-02-20T06:04:12.041Z,45.49
2018-02-20T06:06:37.981Z,45.33
2018-02-20T06:09:03.977Z,45.15
2018-02-20T06:11:29.962Z,45.25
2018-02-20T06:13:55.918Z,45.44
2018-02-20T06:16:21.882Z,45.55
2018-02-20T06:18:47.846Z,45.32
2018-02-20T06:21:13.827Z,45.29
2018-02-20T06:23:39.794Z,45.51
2018-02-20T06:26:05.795Z,45.49
2018-02-20T06:28:31.763Z,45.42
2018-02-20T06:30:57.735Z,45.42
2018-02-20T06:33:23.692Z,45.49
2018-02-20T06:35:49.671Z,45.47
2018-02-20T06:38:15.637Z,45.51
2018-02-20T06:40:41.593Z,45.31
2018-02-20T06:43:07.552Z,45.15
2018-02-20T06:45:33.501Z,45.47
2018-02-20T06:47:59.476Z,45.37
2018-02-20T06:50:25.440Z,45.37
2018-02-20T06:52:51.418Z,45.26
2018-02-20T06:55:17.385Z,45.20
2018-02-20T06:57:43.339Z,45.25
2018-02-20T07:00:09.357Z,45.11
2018-02-20T07:02:35.338Z,45.14
2018-02-20T07:05:01.298Z,45.34
2018-02-20T07:07:27.311Z,45.21
2018-02-20T07:09:53.262Z,45.20
2018-02-20T07:12:19.344Z,45.03
2018-02-20T07:14:45.305Z,45.17
2018-02-20T07:17:11.253Z,45.25
2018-02-20T07:19:37.242Z,45.36
2018-02-20T07:22:03.211Z,45.19
2018-02-20T07:24:29.158Z,44.62
2018-02-20T07:26:55.099Z,44.61
2018-02-20T07:29:21.072Z,44.81
2018-02-20T07:31:47.039Z,44.86
2018-02-20T07:34:13.013Z,44.66
2018-02-20T07:36:39.003Z,44.81
2018-02-20T07:39:04.991Z,44.70
2018-02-20T07:41:30.955Z,44.97
2018-02-20T07:43:56.949Z,45.04
2018-02-20T07:46:22.892Z,44.97
2018-02-20T07:48:48.855Z,44.82
2018-02-20T07:51:14.816Z,45.07
2018-02-20T07:53:40.758Z,44.93
2018-02-20T07:56:06.721Z,45.19
2018-02-20T07:58:32.723Z,44.98
2018-02-20T08:00:58.685Z,45.05
2018-02-20T08:03:24.650Z,44.98
2018-02-20T08:05:50.626Z,44.97
2018-02-20T08:08:16.594Z,44.92
2018-02-20T08:10:42.609Z,44.92
2018-02-20T08:13:08.554Z,44.90
2018-02-20T08:15:34.538Z,44.72
2018-02-20T08:18:00.477Z,44.64
2018-02-20T08:20:26.444Z,44.88
2018-02-20T08:22:52.403Z,44.84
2018-02-20T08:25:18.350Z,44.95
2018-02-20T08:27:44.393Z,44.83
2018-02-20T08:30:10.370Z,44.72
2018-02-20T08:32:36.361Z,44.72
2018-02-20T08:35:02.319Z,44.76
2018-02-20T08:37:28.416Z,44.64
2018-02-20T08:39:54.369Z,44.69
2018-02-20T08:42:20.377Z,44.64
2018-02-20T08:44:46.343Z,44.66
2018-02-20T08:47:12.317Z,44.77
2018-02-20T08:49:38.290Z,44.80
2018-02-20T08:52:04.244Z,45.05
2018-02-20T08:54:30.341Z,44.97
2018-02-20T08:56:56.277Z,45.72
2018-02-20T08:59:22.262Z,45.16
2018-02-20T09:01:48.208Z,44.95
2018-02-20T09:04:14.187Z,45.26
2018-02-20T09:06:40.166Z,44.79
2018-02-20T09:09:06.148Z,44.86
2018-02-20T09:11:32.099Z,45.15
2018-02-20T09:13:58.066Z,45.28
2018-02-20T09:16:24.043Z,45.03
2018-02-20T09:18:50.006Z,45.18
2018-02-20T09:21:16.035Z,45.40
2018-02-20T09:23:42.090Z,45.27
2018-02-20T09:26:08.058Z,45.49
2018-02-20T09:28:34.019Z,45.68
2018-02-20T09:30:59.983Z,45.92
2018-02-20T09:33:25.950Z,45.66
2018-02-20T09:35:51.911Z,45.26
2018-02-20T09:38:17.870Z,45.25
2018-02-20T09:40:43.818Z,45.40
2018-02-20T09:43:09.798Z,45.31
2018-02-20T09:45:36.698Z,45.21
2018-02-20T09:48:02.662Z,44.53
2018-02-20T09:50:28.648Z,43.17
2018-02-20T09:52:54.586Z,43.64
2018-02-20T09:55:20.531Z,43.09
2018-02-20T09:57:46.487Z,43.78
2018-02-20T10:00:12.447Z,43.83
2018-02-20T10:02:38.599Z,44.14
2018-02-20T10:05:04.567Z,44.24
2018-02-20T10:07:30.770Z,44.38
2018-02-20T10:09:56.828Z,44.16
2018-02-20T10:12:22.812Z,44.82
2018-02-20T10:14:48.802Z,44.83
2018-02-20T10:17:14.788Z,44.55
2018-02-20T10:19:40.731Z,44.86
2018-02-20T10:22:06.972Z,44.99
2018-02-20T10:24:32.952Z,44.93
2018-02-20T10:26:58.938Z,44.66
2018-02-20T10:29:24.911Z,44.77
2018-02-20T10:31:50.893Z,44.96
2018-02-20T10:34:16.851Z,44.68
2018-02-20T10:36:42.823Z,44.78
2018-02-20T10:39:08.787Z,44.73
2018-02-20T10:41:34.733Z,44.85
2018-02-20T10:44:00.694Z,44.79
2018-02-20T10:46:26.664Z,44.76
2018-02-20T10:48:52.662Z,44.48
2018-02-20T10:51:18.614Z,44.50
2018-02-20T10:53:44.582Z,44.79
2018-02-20T10:56:10.546Z,44.77
2018-02-20T10:58:36.546Z,44.64
2018-02-20T11:01:02.536Z,45.01
2018-02-20T11:03:28.495Z,44.63
2018-02-20T11:05:54.508Z,44.62
2018-02-20T11:08:20.470Z,44.62
2018-02-20T11:10:46.447Z,44.51
2018-02-20T11:13:12.431Z,44.79
2018-02-20T11:15:38.418Z,44.54
2018-02-20T11:18:04.427Z,44.67
2018-02-20T11:20:30.417Z,44.39
2018-02-20T11:22:56.400Z,44.75
2018-02-20T11:25:22.360Z,44.73
2018-02-20T11:27:48.456Z,44.54
2018-02-20T11:30:14.414Z,44.54
2018-02-20T11:32:40.390Z,44.35
2018-02-20T11:35:06.397Z,44.49
2018-02-20T11:37:32.346Z,45.38
2018-02-20T11:39:58.322Z,44.76
2018-02-20T11:42:24.271Z,44.37
2018-02-20T11:44:50.223Z,44.42
2018-02-20T11:47:16.191Z,44.34
2018-02-20T11:49:42.237Z,44.56
2018-02-20T11:52:08.203Z,44.47
2018-02-20T11:54:34.156Z,44.94
2018-02-20T11:57:00.183Z,44.85
2018-02-20T11:59:26.163Z,44.99
2018-02-20T12:01:52.101Z,44.97
2018-02-20T12:04:18.106Z,44.70
2018-02-20T12:06:44.106Z,44.83
2018-02-20T12:09:10.067Z,44.64
2018-02-20T12:11:36.033Z,44.58
2018-02-20T12:14:02.102Z,44.64
2018-02-20T12:16:28.012Z,44.49
2018-02-20T12:18:53.971Z,44.78
2018-02-20T12:21:19.993Z,44.82
2018-02-20T12:23:45.953Z,44.60
2018-02-20T12:26:12.172Z,44.82
2018-02-20T12:28:38.207Z,44.59
2018-02-20T12:31:04.198Z,44.70
2018-02-20T12:33:30.150Z,44.66
2018-02-20T12:35:56.143Z,44.56
2018-02-20T12:38:22.363Z,44.60
2018-02-20T12:40:48.360Z,44.62
2018-02-20T12:43:14.326Z,45.04
2018-02-20T12:45:40.322Z,45.05
2018-02-20T12:48:06.434Z,45.52
2018-02-20T12:50:32.393Z,45.09
2018-02-20T12:52:58.597Z,44.74
2018-02-20T12:55:25.087Z,44.87
2018-02-20T12:57:51.056Z,45.05
2018-02-20T13:00:17.016Z,44.50
2018-02-20T13:02:43.015Z,44.86
2018-02-20T13:05:08.988Z,44.98
2018-02-20T13:07:34.960Z,44.71
2018-02-20T13:10:00.941Z,45.11
2018-02-20T13:12:26.912Z,44.83
2018-02-20T13:14:52.896Z,43.46
2018-02-20T13:17:18.859Z,42.34
2018-02-20T13:19:44.836Z,41.78
2018-02-20T13:22:10.955Z,42.87
2018-02-20T13:24:36.963Z,42.65
2018-02-20T13:27:02.935Z,43.36
2018-02-20T13:29:28.903Z,43.80
2018-02-20T13:31:54.879Z,42.89
2018-02-20T13:34:20.837Z,42.92
2018-02-20T13:36:46.831Z,43.18
2018-02-20T13:39:12.789Z,43.27
2018-02-20T13:41:38.734Z,43.64
2018-02-20T13:44:04.694Z,43.97
2018-02-20T13:46:30.667Z,43.70
2018-02-20T13:48:56.638Z,43.68
2018-02-20T13:51:22.602Z,43.39
2018-02-20T13:53:48.588Z,43.30
2018-02-20T13:56:14.573Z,43.51
2018-02-20T13:58:40.545Z,43.88
2018-02-20T14:01:06.507Z,43.88
2018-02-20T14:03:32.471Z,43.95
2018-02-20T14:05:58.438Z,43.99
2018-02-20T14:08:24.735Z,44.02
2018-02-20T14:10:50.735Z,43.78
2018-02-20T14:13:16.686Z,44.76
2018-02-20T14:15:42.699Z,44.52
2018-02-20T14:18:08.654Z,44.27
2018-02-20T14:20:34.646Z,44.74
2018-02-20T14:23:00.627Z,44.91
2018-02-20T14:25:26.810Z,44.91
2018-02-20T14:27:52.763Z,44.83
2018-02-20T14:30:18.755Z,45.00
2018-02-20T14:32:44.714Z,44.91
2018-02-20T14:35:10.733Z,44.99
2018-02-20T14:37:36.681Z,44.99
2018-02-20T14:40:02.637Z,44.76
2018-02-20T14:42:28.619Z,44.86
2018-02-20T14:44:54.579Z,44.50
2018-02-20T14:47:20.563Z,44.52
2018-02-20T14:49:46.545Z,44.35
2018-02-20T14:52:12.541Z,44.62
2018-02-20T14:54:38.526Z,44.82
2018-02-20T14:57:04.489Z,44.77
2018-02-20T14:59:30.463Z,44.80
2018-02-20T15:01:56.468Z,44.65
2018-02-20T15:04:22.562Z,44.73
2018-02-20T15:06:48.542Z,44.67
2018-02-20T15:09:14.543Z,44.85
2018-02-20T15:11:40.504Z,44.89
2018-02-20T15:14:06.498Z,44.94
2018-02-20T15:16:32.451Z,45.21
2018-02-20T15:18:58.431Z,45.20
2018-02-20T15:21:24.382Z,45.07
2018-02-20T15:23:50.333Z,45.30
2018-02-20T15:26:16.321Z,45.11
2018-02-20T15:28:42.533Z,45.12
2018-02-20T15:31:08.498Z,45.18
2018-02-20T15:33:34.540Z,45.30
2018-02-20T15:36:00.518Z,45.27
2018-02-20T15:38:26.463Z,45.27
2018-02-20T15:40:52.432Z,45.25
2018-02-20T15:43:18.406Z,45.12
2018-02-20T15:45:44.359Z,44.94
2018-02-20T15:48:10.394Z,44.90
2018-02-20T15:50:36.345Z,44.71
2018-02-20T15:53:02.327Z,44.87
2018-02-20T15:55:28.296Z,44.63
2018-02-20T15:57:54.289Z,44.62
2018-02-20T16:00:20.231Z,44.89
2018-02-20T16:02:46.201Z,44.48
2018-02-20T16:05:12.170Z,44.50
2018-02-20T16:07:38.220Z,44.74
2018-02-20T16:10:04.174Z,44.67
2018-02-20T16:12:30.414Z,44.97
2018-02-20T16:14:56.378Z,45.16
2018-02-20T16:17:22.342Z,44.96
2018-02-20T16:19:48.384Z,44.90
2018-02-20T16:22:14.373Z,44.94
2018-02-20T16:24:40.314Z,44.82
2018-02-20T16:27:06.308Z,44.66
2018-02-20T16:29:32.293Z,44.76
2018-02-20T16:31:58.252Z,45.20
2018-02-20T16:34:24.234Z,45.12
2018-02-20T16:36:50.174Z,45.03
2018-02-20T16:39:16.138Z,44.99
2018-02-20T16:41:42.100Z,44.84
2018-02-20T16:44:08.183Z,44.89
2018-02-20T16:46:34.173Z,44.84
2018-02-20T16:49:00.155Z,44.91
2018-02-20T16:51:26.122Z,44.93
2018-02-20T16:53:52.274Z,45.06
2018-02-20T16:56:18.248Z,45.02
2018-02-20T16:58:44.251Z,45.33
2018-02-20T17:01:10.270Z,44.89
2018-02-20T17:03:36.214Z,44.88
2018-02-20T17:06:02.190Z,44.90
2018-02-20T17:08:28.178Z,45.09
2018-02-20T17:10:54.134Z,44.80
2018-02-20T17:13:20.091Z,45.45
2018-02-20T17:15:46.056Z,45.24
2018-02-20T17:18:12.023Z,44.97
2018-02-20T17:20:38.028Z,44.80
2018-02-20T17:23:03.986Z,44.78
2018-02-20T17:25:29.935Z,44.71
2018-02-20T17:27:55.925Z,44.91
2018-02-20T17:30:21.898Z,44.80
2018-02-20T17:32:47.861Z,44.72
2018-02-20T17:35:13.827Z,44.66
2018-02-20T17:37:39.792Z,44.93
2018-02-20T17:40:05.742Z,45.55
2018-02-20T17:42:31.716Z,45.18
2018-02-20T17:44:57.679Z,45.19
2018-02-20T17:47:23.634Z,45.16
2018-02-20T17:49:49.613Z,45.23
2018-02-20T17:52:15.569Z,45.09
2018-02-20T17:54:41.564Z,44.92
2018-02-20T17:57:07.537Z,45.07
2018-02-20T17:59:33.524Z,45.00
2018-02-20T18:01:59.463Z,44.92
2018-02-20T18:04:25.468Z,44.75
2018-02-20T18:06:51.472Z,44.64
2018-02-20T18:09:17.550Z,44.51
2018-02-20T18:11:43.520Z,44.59
2018-02-20T18:14:09.493Z,44.70
2018-02-20T18:16:35.479Z,44.80
2018-02-20T18:19:01.481Z,44.97
2018-02-20T18:21:27.429Z,44.63
2018-02-20T18:23:53.416Z,44.29
2018-02-20T18:26:19.447Z,44.53
2018-02-20T18:28:45.386Z,44.57
2018-02-20T18:31:11.416Z,44.46
2018-02-20T18:33:37.392Z,44.67
2018-02-20T18:36:03.380Z,44.50
2018-02-20T18:38:29.347Z,44.43
2018-02-20T18:40:55.356Z,44.43
2018-02-20T18:43:21.338Z,44.39
2018-02-20T18:45:47.358Z,44.53
2018-02-20T18:48:13.320Z,44.56
2018-02-20T18:50:39.287Z,44.40
2018-02-20T18:53:05.271Z,44.54
2018-02-20T18:55:31.260Z,44.63
2018-02-20T18:57:57.325Z,44.68
2018-02-20T19:00:23.331Z,44.47
2018-02-20T19:02:49.308Z,45.06
2018-02-20T19:05:15.266Z,44.98
2018-02-20T19:07:41.243Z,45.09
2018-02-20T19:10:07.369Z,45.09
2018-02-20T19:12:33.336Z,44.44
2018-02-20T19:14:59.328Z,44.47
2018-02-20T19:17:25.283Z,44.49
2018-02-20T19:19:51.266Z,44.45
2018-02-20T19:22:17.224Z,44.67
2018-02-20T19:24:43.196Z,44.78
2018-02-20T19:27:09.183Z,44.78
2018-02-20T19:29:35.180Z,44.73
2018-02-20T19:32:01.156Z,44.94
2018-02-20T19:34:27.117Z,44.97
2018-02-20T19:36:53.071Z,45.12
2018-02-20T19:39:19.037Z,45.22
2018-02-20T19:41:45.054Z,45.10
2018-02-20T19:44:11.060Z,45.07
2018-02-20T19:46:37.035Z,45.13
2018-02-20T19:49:03.202Z,45.24
2018-02-20T19:51:29.188Z,45.17
2018-02-20T19:53:55.152Z,45.41
2018-02-20T19:56:21.118Z,45.22
2018-02-20T19:58:47.089Z,44.87
2018-02-20T20:01:13.062Z,44.75
2018-02-20T20:03:39.053Z,44.82
2018-02-20T20:06:05.049Z,44.98
2018-02-20T20:08:31.002Z,45.08
2018-02-20T20:10:56.970Z,45.00
2018-02-20T20:13:22.958Z,44.94
2018-02-20T20:15:48.930Z,45.00
2018-02-20T20:18:14.968Z,44.94
2018-02-20T20:20:47.935Z,45.09
2018-02-20T20:23:06.936Z,44.94
2018-02-20T20:25:32.908Z,45.03
2018-02-20T20:27:58.931Z,45.10
2018-02-20T20:30:24.893Z,45.24
2018-02-20T20:32:50.877Z,45.14
2018-02-20T20:35:16.965Z,45.00
2018-02-20T20:37:42.994Z,45.24
2018-02-20T20:40:08.981Z,45.02
2018-02-20T20:42:34.933Z,44.94
2018-02-20T20:45:00.911Z,44.67
2018-02-20T20:47:26.906Z,44.43
2018-02-20T20:49:52.922Z,44.58
2018-02-20T20:52:18.885Z,44.90
2018-02-20T20:54:44.883Z,44.55
2018-02-20T20:57:11.063Z,44.72
2018-02-20T20:59:37.051Z,44.69
2018-02-20T21:02:03.025Z,44.70
2018-02-20T21:04:28.997Z,44.75
2018-02-20T21:06:54.957Z,44.79
2018-02-20T21:09:20.932Z,44.79
2018-02-20T21:11:46.912Z,44.77
2018-02-20T21:14:12.886Z,44.87
2018-02-20T21:16:38.841Z,44.81
2018-02-20T21:19:04.787Z,44.83
2018-02-20T21:21:30.758Z,44.88
2018-02-20T21:23:56.837Z,45.08
2018-02-20T21:26:22.813Z,45.12
2018-02-20T21:28:48.778Z,45.17
2018-02-20T21:31:14.824Z,46.26
2018-02-20T21:33:40.804Z,45.82
2018-02-20T21:36:06.786Z,45.79
2018-02-20T21:38:32.808Z,45.84
2018-02-20T21:40:58.843Z,45.84
2018-02-20T21:43:24.878Z,45.88
2018-02-20T21:45:50.893Z,46.01
2018-02-20T21:48:16.858Z,46.05
2018-02-20T21:50:42.816Z,46.10
2018-02-20T21:53:09.597Z,46.06
2018-02-20T21:55:35.610Z,46.24
2018-02-20T21:58:01.521Z,46.46
2018-02-20T22:00:27.512Z,46.47
2018-02-20T22:02:53.447Z,46.63
2018-02-20T22:05:19.422Z,46.82
2018-02-20T22:07:45.480Z,46.63
2018-02-20T22:10:11.781Z,46.55
2018-02-20T22:12:37.737Z,46.52
2018-02-20T22:15:03.690Z,46.52
2018-02-20T22:17:29.648Z,46.31
2018-02-20T22:19:55.622Z,46.66
2018-02-20T22:22:21.586Z,46.26
2018-02-20T22:24:47.628Z,46.52
2018-02-20T22:27:13.607Z,46.63
2018-02-20T22:29:39.554Z,46.43
2018-02-20T22:32:05.543Z,46.41
2018-02-20T22:34:31.510Z,46.64
2018-02-20T22:36:57.478Z,46.88
2018-02-20T22:39:23.448Z,46.52
2018-02-20T22:41:49.422Z,46.64
2018-02-20T22:44:15.462Z,46.36
2018-02-20T22:46:41.420Z,46.54
2018-02-20T22:49:07.402Z,46.40
2018-02-20T22:51:33.396Z,46.38
2018-02-20T22:53:59.391Z,46.51
2018-02-20T22:56:25.330Z,46.40
2018-02-20T22:58:51.336Z,46.61
2018-02-20T23:01:17.289Z,46.78
2018-02-20T23:03:43.268Z,46.69
2018-02-20T23:06:09.238Z,46.44
2018-02-20T23:08:35.211Z,46.64
2018-02-20T23:11:01.161Z,46.38
2018-02-20T23:13:27.129Z,46.57
2018-02-20T23:15:53.097Z,46.33
2018-02-20T23:18:19.094Z,46.27
2018-02-20T23:20:45.053Z,46.32
2018-02-20T23:23:11.026Z,46.24
2018-02-20T23:25:37.163Z,46.31
2018-02-20T23:28:03.134Z,46.27
2018-02-20T23:30:29.140Z,46.43
2018-02-20T23:32:55.136Z,46.29
2018-02-20T23:35:21.100Z,46.87
2018-02-20T23:37:47.065Z,46.27
2018-02-20T23:40:13.048Z,46.37
2018-02-20T23:42:39.044Z,46.44
2018-02-20T23:45:06.119Z,46.56
2018-02-20T23:47:32.111Z,46.44
2018-02-20T23:49:58.116Z,46.36
2018-02-20T23:52:24.062Z,46.25
2018-02-20T23:54:50.006Z,46.15
2018-02-20T23:57:15.961Z,46.38
2018-02-20T23:59:41.923Z,46.02
